Angeles - Pampanga, Philippines

2:18 PM PHT on August 31, 2014 (GMT +0800)
Ninoy Aquino International | Change Station
CLOSE
Current Station
Airport
Location: Manila,
Elevation: 49 ft
Nearby Weather Stations

Elev 49 ft 14.51 °N, 121.00 °E | Updated 18 minutes ago

Scattered Clouds
Scattered Clouds
88 °F
Feels Like 105 °F
N
14
Wind Variable Wind from West

Today
High -- | Low -- °F
--% Chance of Precip.
Yesterday
High -- | Low -- °F
Precip. -- in
5:45 AM 6:10 PM
Waxing Crescent, 28% visible
Pressure 29.74 in
Visibility 6.2 miles
Clouds Few 2500 ft
Scattered Clouds 10000 ft
Heat Index 105 °F
Dew Point 81 °F
Humidity 79%
Rainfall 0.00 in
Snow Depth Not available.
UV 11 out of 12
Pollen Not available.
Air Quality Not available.
Flu Activity Not available.
METAR RPLL 310600Z 27012KT 9999 FEW025 SCT100 31/27 Q1007 NOSIG RMK A2974

More Conditions Fewer Conditions

Pressure 29.74 in
Visibility 6.2 miles
Clouds Few 2500 ft
Scattered Clouds 10000 ft
Heat Index 105 °F
Dew Point 81 °F
Humidity 79%
Rainfall 0.00 in
Snow Depth Not available.
UV 11 out of 12
Pollen Not available.
Air Quality Not available.
Flu Activity Not available.
METAR RPLL 310600Z 27012KT 9999 FEW025 SCT100 31/27 Q1007 NOSIG RMK A2974

More Conditions Fewer Conditions

10-Day Weather Forecast

Almanac

Astronomy

Aug. 31, 2014 Rise Set
Actual Time 5:45 AM PHT 6:10 PM PHT
Civil Twilight 5:23 AM PHT 6:32 PM PHT
Nautical Twilight 4:57 AM PHT 6:58 PM PHT
Astronomical Twilight 4:32 AM PHT 7:23 PM PHT
Moon 10:04 AM PHT 9:56 PM PHT
Length of Visible Light 13h 09m
Length of Day
12h 25m
Tomorrow will be 0m 49s shorter.
Waxing Crescent, 28% of the Moon is Illuminated
Today
Waxing Crescent
Sep 2
First Quarter
Sep 8
Full
Sep 15
Last Quarter
Sep 24
New

Yesterday's Extremes

Country Highs Country Lows

Community

WunderPhotos

Upload Photos

1,748,801 photos uploaded!

Nearby

Snow Depth

Not available.

Earthquake Activity

City Distance Mag. Time & Date
No recent earthquake activity has been reported nearby.
Minimum magnitude displayed is 2.5.

Coastal Water Temperatures

Place Temperature
No Stations Reporting

Nearby Weather Stations